Flight Track Log - Related Links

Times and Time Zones

All times are in EDT time to prevent confusion due to time zone crossing. See the N143DE flight status page for this flight to view local times or setup timezone preferences in your user account.

Time Position Orientation Groundspeed Altitude Reporting Facility
EDT Latitude Longitude Course Direction KTS MPH feet Rate Location/Type
Mon 11:49:39 AM 30.4581 -84.4058 346° North 187 215 4,000  Level Jacksonville Center
Mon 11:50:39 AM 30.5039 -84.4067 359° North 204 235 6,200 2,200 Climbing Jacksonville Center
Mon 11:51:39 AM 30.5561 -84.3956 10° North 198 228 8,400 1,900 Climbing Jacksonville Center
Mon 11:52:39 AM 30.6083 -84.3939 North 186 214 10,000 1,550 Climbing Jacksonville Center
Mon 11:53:39 AM 30.6669 -84.3875 North 197 227 11,500 1,800 Climbing Jacksonville Center
Mon 11:54:00 AM 30.7490 -84.4568 346° North  Level FlightAware
Mon 11:54:39 AM 30.7233 -84.3861 North 203 234 13,600  Level Jacksonville Center
Mon 11:55:39 AM 30.7714 -84.3942 352° North 185 213 15,300 1,550 Climbing Jacksonville Center
Mon 11:56:39 AM 30.8214 -84.4019 352° North 180 207 16,700 1,100 Climbing Jacksonville Center
Mon 11:57:39 AM 30.8711 -84.4197 343° North 180 207 17,500 650 Climbing Jacksonville Center
Mon 11:58:39 AM 30.9314 -84.4425 342° North 199 229 18,000 250 Climbing Jacksonville Center
Mon 11:59:39 AM 31.0000 -84.4656 344° North 228 262 18,000  Level Jacksonville Center
Mon 12:00:39 PM 31.0686 -84.4908 342° North 244 281 18,000 200 Level Jacksonville Center
Mon 12:01:39 PM 31.1394 -84.5189 341° North 258 297 18,400 700 Climbing Jacksonville Center
Mon 12:02:39 PM 31.2017 -84.5394 344° North 258 297 19,400 800 Climbing Jacksonville Center
Mon 12:03:39 PM 31.2661 -84.5647 341° North 246 283 20,000 300 Climbing Jacksonville Center
Mon 12:04:39 PM 31.3347 -84.5856 345° North 246 283 20,000  Level Jacksonville Center
Mon 12:05:39 PM 31.4011 -84.6086 343° North 246 283 20,000  Level Jacksonville Center
Mon 12:06:39 PM 31.4678 -84.6342 342° North 246 283 20,000  Level Jacksonville Center
Mon 12:08:31 PM 31.5925 -84.6800 343° North 251 289 20,000  Level Atlanta Center
Mon 12:09:31 PM 31.6550 -84.7169 333° Northwest 251 289 20,000  Level Atlanta Center
Mon 12:10:31 PM 31.7175 -84.7394 343° North 251 289 20,000  Level Atlanta Center
Mon 12:11:31 PM 31.7883 -84.7547 350° North 251 289 20,000  Level Atlanta Center
Mon 12:12:31 PM 31.8572 -84.7797 343° North 251 289 20,000  Level Atlanta Center
Mon 12:13:31 PM 31.9236 -84.8122 337° Northwest 251 289 20,000  Level Atlanta Center
Mon 12:14:31 PM 31.9925 -84.8347 345° North 251 289 20,000  Level Atlanta Center
Mon 12:15:31 PM 32.0611 -84.8575 344° North 251 289 20,000  Level Atlanta Center
Mon 12:16:31 PM 32.1300 -84.8825 343° North 251 289 20,000 -400 Level Atlanta Center
Mon 12:17:31 PM 32.2028 -84.9128 341° North 256 295 19,200 -850 Descending Atlanta Center
Mon 12:18:31 PM 32.2861 -84.9356 347° North 270 311 18,300 -800 Descending Atlanta Center
Mon 12:19:31 PM 32.3611 -84.9633 343° North 276 318 17,600 -977 Descending Atlanta Center
Mon 12:19:57 PM 32.4000 -84.9667 356° North 280 322 16,900 -1,605 Descending Atlanta TRACON
Mon 12:20:57 PM 32.4667 -85.0000 337° Northwest 293 337 15,300 -1,558 Descending Atlanta TRACON
Mon 12:22:31 PM 32.5858 -85.0397 344° North 277 319 12,900 -1,600 Descending Atlanta Center
Mon 12:22:57 PM 32.6167 -85.0500 344° North 263 303 12,100 -1,500 Descending Atlanta TRACON
Mon 12:23:31 PM 32.6544 -85.0678 338° Northwest 272 313 11,400 -894 Descending Atlanta Center
Mon 12:24:31 PM 32.7253 -85.0883 346° North 259 298 10,700 -700 Descending Atlanta Center
Mon 12:25:31 PM 32.7878 -85.1136 341° North 253 291 10,000 -350 Descending Atlanta Center
Mon 12:26:31 PM 32.8481 -85.1367 342° North 248 285 10,000  Level Atlanta Center
Mon 12:27:31 PM 32.9125 -85.1572 345° North 224 258 10,000 -58 Level Atlanta Center
Mon 12:29:58 PM 33.0667 -85.2000 347° North 235 270 9,800 -290 Descending Atlanta TRACON
Mon 12:30:58 PM 33.1333 -85.2167 348° North 251 289 9,000 -400 Descending Atlanta TRACON
Mon 12:31:58 PM 33.1833 -85.1833 29° Northeast 240 276 9,000  Level Atlanta TRACON
Mon 12:32:57 PM 33.2500 -85.1333 32° Northeast 235 270 9,000 -303 Level Atlanta TRACON
Mon 12:33:57 PM 33.3000 -85.1333 360° North 236 272 8,400 -835 Descending Atlanta TRACON
Mon 12:34:52 PM 33.3667 -85.1000 23° Northeast 247 284 7,400 -992 Descending Atlanta TRACON
Mon 12:35:58 PM 33.4333 -85.0833 12° North 242 278 6,400 -864 Descending Atlanta TRACON
Mon 12:36:57 PM 33.5000 -85.0667 12° North 242 278 5,600 -756 Descending Atlanta TRACON
Mon 12:37:57 PM 33.5500 -85.0333 29° Northeast 217 250 4,900 -350 Descending Atlanta TRACON
Mon 12:38:57 PM 33.6000 -85.0167 16° North 188 216 4,900  Level Atlanta TRACON
Mon 12:40:00 PM 33.6683 -85.0349 320° Northwest  Level FlightAware
Mon 12:40:52 PM 33.7000 -84.9833 320° Northwest 191 220 4,900  Level Atlanta TRACON
Mon 12:41:52 PM 33.7500 -84.9667 15° North 175 201 4,900  Level Atlanta TRACON
Mon 12:42:57 PM 33.8000 -84.9333 29° Northeast 182 209 4,900 -150 Level Atlanta TRACON
Mon 12:43:52 PM 33.8500 -84.9167 15° North 187 215 4,600 -446 Descending Atlanta TRACON
Mon 12:44:58 PM 33.9000 -84.9000 15° North 180 207 4,000 -300 Descending Atlanta TRACON
Mon 12:45:52 PM 33.9333 -84.8833 23° Northeast 180 207 4,000  Level Atlanta TRACON
Mon 12:46:58 PM 34.0000 -84.8667 12° North 185 213 4,000 -48 Level Atlanta TRACON
Mon 12:47:57 PM 34.0333 -84.8333 40° Northeast 193 222 3,900  Descending Atlanta TRACON
Mon 12:48:58 PM 34.0500 -84.7833 68° East 177 204 4,000  Climbing Atlanta TRACON
Mon 12:49:57 PM 34.0667 -84.7167 73° East 179 206 3,900 -400 Descending Atlanta TRACON
Mon 12:50:58 PM 34.0667 -84.6667 90° East 180 207 3,200 -545 Descending Atlanta TRACON
Mon 12:51:58 PM 34.0833 -84.6167 68° East 161 185 2,800 -200 Descending Atlanta TRACON
Mon 12:53:00 PM 34.0205 -84.5915 162° South  Level FlightAware
Mon 12:53:58 PM 34.0500 -84.5167 162° South 132 152 2,600  Level Atlanta TRACON
Mon 12:54:58 PM 34.0167 -84.5333 203° Southwest 132 152 1,900 -700 Descending Atlanta TRACON
Mon 12:56:00 PM 34.0132 -84.5971 266° West  Level Estimated

Login

Don't have an account? Register now (free) for customized features, flight alerts, and more!